Time;durP1;ratioP1;P1;durP2;ratioP2;P2;SDS_P1;SDS_P2;PMS_P1;PMS_P2;Temp;Humidity;BMP_temperature;BMP_pressure;BME280_temperature;BME280_humidity;BME280_pressure;Samples;Min_cycle;Max_cycle;Signal;HPM_P1;HPM_P2
2022/07/07 00:05:52;;;;;;;55.03;31.88;;;27.20;99.90;;;;;;4912643;29;20036;-63
2022/07/07 00:08:38;;;;;;;48.90;30.20;;;27.10;99.90;;;;;;4912239;29;20397;-63
2022/07/07 00:11:05;;;;;;;51.65;29.88;;;27.00;99.90;;;;;;4912589;29;20500;-63
2022/07/07 00:32:24;;;;;;;72.53;50.00;;;27.00;99.90;;;;;;4957379;27;4985491;-63
2022/07/07 00:35:31;;;;;;;75.05;45.45;;;27.10;99.90;;;;;;5008688;28;20523;-64
2022/07/07 00:37:57;;;;;;;54.20;38.78;;;27.20;99.90;;;;;;4931475;29;20047;-64
2022/07/07 00:40:48;;;;;;;49.90;39.03;;;27.10;99.90;;;;;;4931398;29;20048;-64
2022/07/07 00:43:55;;;;;;;49.78;38.78;;;27.20;99.90;;;;;;4874947;29;20037;-64
2022/07/07 00:46:42;;;;;;;53.83;39.47;;;27.10;99.90;;;;;;4819551;29;20039;-63
2022/07/07 00:49:48;;;;;;;54.15;35.30;;;27.30;99.90;;;;;;4765607;30;20044;-63
2022/07/07 00:55:04;;;;;;;41.13;30.25;;;27.40;99.90;;;;;;4661096;30;20047;-63
2022/07/07 01:04:18;;;;;;;28.97;21.37;;;27.50;99.90;;;;;;4958310;27;4959293;-64
2022/07/07 01:07:05;;;;;;;35.72;24.15;;;27.60;99.90;;;;;;5008825;28;20034;-64
2022/07/07 01:09:31;;;;;;;35.47;20.27;;;27.80;99.90;;;;;;4969768;28;20547;-63
2022/07/07 01:11:58;;;;;;;72.68;44.08;;;27.90;99.90;;;;;;4969876;28;20494;-63
2022/07/07 01:14:26;;;;;;;40.50;27.85;;;27.80;99.90;;;;;;4969830;28;20039;-63
2022/07/07 01:17:12;;;;;;;29.98;17.73;;;27.70;99.90;;;;;;4969464;28;20111;-63
2022/07/07 01:19:59;;;;;;;22.00;16.38;;;27.70;99.90;;;;;;4893608;29;20123;-63
2022/07/07 01:31:27;;;;;;;27.63;14.90;;;28.20;99.90;;;;;;4730292;30;20456;-63
2022/07/07 01:43:28;;;;;;;18.40;12.60;;;28.40;99.90;;;;;;5091528;27;20473;-63
2022/07/07 01:54:36;;;;;;;34.25;13.35;;;28.60;99.90;;;;;;4874918;29;20097;-63
2022/07/07 02:00:49;;;;;;;25.73;13.25;;;28.80;99.90;;;;;;4856658;29;20100;-63
2022/07/07 02:13:29;;;;;;;12.55;6.75;;;29.00;99.90;;;;;;4969893;28;20036;-63
2022/07/07 02:16:15;;;;;;;14.57;7.72;;;29.00;99.90;;;;;;4950886;28;20043;-63
2022/07/07 02:19:03;;;;;;;16.00;8.27;;;29.00;99.90;;;;;;4875006;29;20063;-63
2022/07/07 02:25:16;;;;;;;11.63;7.18;;;29.20;99.90;;;;;;4801723;29;20529;-63
2022/07/07 02:34:13;;;;;;;16.25;8.30;;;29.40;99.90;;;;;;5091597;27;20398;-62
2022/07/07 02:36:40;;;;;;;13.70;7.38;;;29.50;99.90;;;;;;5068729;28;20074;-63
2022/07/07 02:42:52;;;;;;;12.88;6.90;;;29.40;99.90;;;;;;5008824;28;20038;-63
2022/07/07 02:45:59;;;;;;;14.00;7.25;;;29.60;99.90;;;;;;4874924;29;20049;-65
2022/07/07 02:51:32;;;;;;;11.35;7.40;;;29.70;99.90;;;;;;4783479;30;20450;-63
2022/07/07 02:54:00;;;;;;;12.73;7.18;;;29.60;99.90;;;;;;4747950;30;20114;-63
2022/07/07 03:11:57;;;;;;;16.80;6.65;;;30.10;99.90;;;;;;4931430;29;20175;-63
2022/07/07 03:14:43;;;;;;;12.55;6.75;;;30.10;99.90;;;;;;4931234;29;20062;-63
2022/07/07 03:17:52;;;;;;;10.32;7.13;;;30.10;99.90;;;;;;4874712;29;20041;-63
2022/07/07 03:38:31;;;;;;;10.30;6.00;;;30.40;99.90;;;;;;4931332;29;20082;-62
2022/07/07 03:44:05;;;;;;;9.18;6.68;;;30.20;99.90;;;;;;4765381;30;20131;-62
2022/07/07 03:46:31;;;;;;;8.23;6.75;;;30.30;99.90;;;;;;4765138;30;20036;-62
2022/07/07 03:49:18;;;;;;;10.07;5.63;;;30.50;99.90;;;;;;4764897;30;20407;-63
2022/07/07 03:52:04;;;;;;;12.98;7.18;;;30.50;99.90;;;;;;4730241;30;20059;-63
2022/07/07 03:54:31;;;;;;;16.65;7.38;;;30.60;99.90;;;;;;4695341;30;20128;-62
2022/07/07 04:03:11;;;;;;;13.90;6.15;;;30.70;99.90;;;;;;5091443;27;20436;-62
2022/07/07 04:05:58;;;;;;;10.52;5.93;;;30.90;99.90;;;;;;5090740;28;20427;-62
2022/07/07 04:11:51;;;;;;;16.20;6.47;;;31.10;99.90;;;;;;4989061;28;20030;-62
2022/07/07 04:17:24;;;;;;;10.27;5.78;;;31.10;99.90;;;;;;4969520;28;20043;-62
2022/07/07 04:23:17;;;;;;;12.70;5.88;;;31.20;99.90;;;;;;4874457;29;20037;-62
2022/07/07 04:38:42;;;;;;;6.45;5.43;;;31.50;99.90;;;;;;4967629;27;4684142;-64
2022/07/07 04:44:15;;;;;;;12.95;7.75;;;31.60;99.90;;;;;;4969719;28;20031;-65
2022/07/07 04:47:02;;;;;;;18.48;9.98;;;31.60;99.90;;;;;;4969922;28;20141;-65
2022/07/07 04:50:08;;;;;;;13.85;8.65;;;31.80;99.90;;;;;;4912285;29;20049;-64
2022/07/07 04:52:35;;;;;;;12.82;7.55;;;31.80;99.90;;;;;;4795163;29;20057;-64
2022/07/07 04:58:08;;;;;;;8.55;6.00;;;31.90;99.90;;;;;;4765516;29;20059;-63
2022/07/07 05:00:57;;;;;;;10.25;6.20;;;32.00;99.90;;;;;;4765680;30;20085;-65
2022/07/07 05:09:34;;;;;;;15.20;10.63;;;32.10;99.90;;;;;;4490204;27;18607831;-64
2022/07/07 05:15:08;;;;;;;26.77;19.63;;;32.20;99.90;;;;;;5048172;28;20040;-63
2022/07/07 05:27:14;;;;;;;9.45;5.93;;;32.30;99.90;;;;;;4747593;30;20040;-65
2022/07/07 05:35:20;;;;;;;11.57;6.90;;;32.50;99.90;;;;;;5070123;28;20982;-64
2022/07/07 05:41:13;;;;;;;9.57;6.72;;;32.50;99.90;;;;;;5007564;28;20038;-67
2022/07/07 05:43:59;;;;;;;11.82;6.00;;;32.40;99.90;;;;;;4948669;29;20416;-66
2022/07/07 05:50:12;;;;;;;11.90;5.53;;;32.50;99.90;;;;;;4873791;29;20048;-68
2022/07/07 06:01:35;;;;;;;8.73;6.63;;;32.50;99.80;;;;;;5099753;27;20495;-67
2022/07/07 06:04:23;;;;;;;9.15;5.90;;;32.60;99.00;;;;;;5090553;28;20081;-67
2022/07/07 06:07:09;;;;;;;9.82;5.70;;;32.60;99.00;;;;;;5062011;28;20039;-66
2022/07/07 06:10:16;;;;;;;8.27;5.65;;;32.70;98.90;;;;;;5027115;28;20430;-66
2022/07/07 06:29:08;;;;;;;8.15;5.82;;;33.20;95.30;;;;;;5050311;27;2036677;-67
2022/07/07 06:35:01;;;;;;;9.77;5.65;;;33.30;93.50;;;;;;4939185;29;20028;-65
2022/07/07 06:37:47;;;;;;;19.58;6.72;;;33.30;94.10;;;;;;4871816;29;20440;-66
2022/07/07 06:40:34;;;;;;;9.43;5.85;;;33.30;94.20;;;;;;4831440;29;20051;-66
2022/07/07 06:43:20;;;;;;;8.95;6.00;;;33.30;93.40;;;;;;4763683;30;20153;-66
2022/07/07 06:45:47;;;;;;;8.13;5.53;;;33.50;92.70;;;;;;4757076;30;20052;-67
2022/07/07 06:51:20;;;;;;;7.18;5.10;;;33.70;92.40;;;;;;4755273;30;20166;-67
2022/07/07 07:06:28;;;;;;;13.30;6.72;;;33.60;91.80;;;;;;4927462;27;5717074;-68
2022/07/07 07:12:21;;;;;;;18.95;6.22;;;33.90;91.00;;;;;;4949030;29;20086;-66
2022/07/07 07:17:54;;;;;;;7.82;4.95;;;34.10;89.70;;;;;;4807680;29;20049;-67
2022/07/07 07:32:44;;;;;;;11.98;7.03;;;33.90;89.70;;;;;;5033898;27;2529909;-66
2022/07/07 07:41:45;;;;;;;10.43;6.60;;;33.70;90.90;;;;;;4892991;29;20040;-65
2022/07/07 07:44:11;;;;;;;11.15;6.07;;;33.60;90.30;;;;;;4891237;29;20044;-65
2022/07/07 07:46:58;;;;;;;12.55;7.40;;;33.60;89.50;;;;;;4892753;29;20045;-67
2022/07/07 07:49:44;;;;;;;14.10;6.60;;;33.60;90.30;;;;;;4834672;29;20488;-66
2022/07/07 08:07:52;;;;;;;9.52;6.60;;;33.90;86.80;;;;;;4910352;29;20032;-68
2022/07/07 08:13:05;;;;;;;9.38;6.78;;;34.00;86.70;;;;;;4907352;29;20036;-67
2022/07/07 08:15:32;;;;;;;10.45;7.10;;;34.10;85.30;;;;;;4911561;29;20433;-68
2022/07/07 08:21:25;;;;;;;9.95;7.85;;;34.20;85.30;;;;;;4873728;29;20486;-66
2022/07/07 08:33:26;;;;;;;9.25;6.35;;;33.90;81.20;;;;;;4575373;27;15803196;-67
2022/07/07 08:36:13;;;;;;;11.65;7.05;;;33.80;84.40;;;;;;5111017;28;20111;-64
2022/07/07 08:57:34;;;;;;;11.60;7.80;;;34.00;87.80;;;;;;4770827;27;9852886;-67
2022/07/07 09:00:40;;;;;;;13.38;7.65;;;34.00;86.20;;;;;;5111056;28;20028;-66
2022/07/07 09:03:07;;;;;;;18.83;10.00;;;34.10;85.80;;;;;;4969773;28;20039;-71
2022/07/07 09:05:54;;;;;;;19.85;10.57;;;34.00;85.70;;;;;;4970023;28;20114;-71
2022/07/07 09:29:59;;;;;;;36.03;22.80;;;33.50;87.40;;;;;;5008875;28;20077;-66
2022/07/07 09:39:26;;;;;;;163.40;101.10;;;33.50;87.30;;;;;;4837811;29;20054;-65
2022/07/07 09:42:21;;;;;;;82.00;49.85;;;33.40;87.60;;;;;;4819415;29;20050;-66
2022/07/07 09:45:09;;;;;;;176.63;98.95;;;33.40;88.00;;;;;;4765547;30;20036;-66
2022/07/07 09:47:36;;;;;;;21.48;14.57;;;33.30;88.70;;;;;;4730156;30;20067;-65
2022/07/07 10:00:19;;;;;;;45.30;24.23;;;33.30;89.00;;;;;;5090863;28;20425;-66
2022/07/07 10:02:47;;;;;;;151.05;78.28;;;33.10;89.70;;;;;;5028622;28;20045;-65
2022/07/07 10:05:17;;;;;;;80.43;47.05;;;33.10;88.90;;;;;;5028494;28;20084;-66
2022/07/07 10:14:07;;;;;;;47.53;30.13;;;33.10;89.80;;;;;;4912124;29;20037;-65
2022/07/07 10:16:54;;;;;;;84.82;49.03;;;33.10;89.10;;;;;;4912192;29;20033;-65
2022/07/07 10:38:53;;;;;;;118.18;68.80;;;32.90;90.30;;;;;;4982797;28;20496;-65
2022/07/07 10:41:25;;;;;;;67.18;36.78;;;32.90;90.20;;;;;;4931205;29;20044;-65
2022/07/07 10:44:31;;;;;;;96.18;52.60;;;32.80;90.70;;;;;;4931366;29;20584;-65
2022/07/07 10:47:19;;;;;;;65.80;37.85;;;32.80;90.10;;;;;;4856098;29;20048;-64
2022/07/07 10:50:22;;;;;;;84.40;45.55;;;32.70;90.10;;;;;;4856124;29;20041;-65
2022/07/07 10:52:48;;;;;;;68.95;39.92;;;32.70;90.90;;;;;;4837685;29;20070;-65
2022/07/07 11:03:06;;;;;;;86.97;54.90;;;32.60;91.00;;;;;;4980852;26;20102;-66
2022/07/07 11:05:34;;;;;;;83.63;48.87;;;32.50;91.10;;;;;;5064049;28;20067;-65
2022/07/07 11:08:03;;;;;;;78.10;52.08;;;32.50;91.30;;;;;;5059289;28;20043;-65
2022/07/07 11:10:34;;;;;;;65.30;41.85;;;32.50;91.00;;;;;;5058057;28;20075;-65
2022/07/07 11:13:16;;;;;;;77.78;46.40;;;32.50;91.40;;;;;;5059218;28;20017;-65
2022/07/07 11:15:45;;;;;;;88.80;49.40;;;32.50;91.20;;;;;;5067490;28;20032;-65
2022/07/07 11:18:15;;;;;;;112.35;65.25;;;32.40;91.40;;;;;;5060369;28;20242;-65
2022/07/07 11:20:46;;;;;;;78.38;42.75;;;32.40;91.60;;;;;;5059797;28;20025;-66
2022/07/07 11:23:13;;;;;;;72.15;42.45;;;32.40;91.90;;;;;;5060422;28;20025;-65
2022/07/07 11:25:41;;;;;;;62.28;36.92;;;32.40;92.00;;;;;;5059210;28;20100;-65
2022/07/07 11:28:10;;;;;;;79.95;49.55;;;32.40;92.10;;;;;;5053019;28;20039;-64
2022/07/07 11:30:40;;;;;;;78.35;45.55;;;32.40;91.90;;;;;;5049482;28;20029;-62
2022/07/07 11:33:08;;;;;;;50.20;27.00;;;32.30;91.70;;;;;;5049690;28;20468;-62
2022/07/07 11:35:37;;;;;;;91.95;54.05;;;32.30;91.80;;;;;;5049036;28;20029;-61
2022/07/07 11:38:06;;;;;;;78.13;44.38;;;32.30;91.70;;;;;;5049184;28;20033;-62
2022/07/07 11:40:33;;;;;;;89.45;48.88;;;32.20;91.80;;;;;;5049283;28;20516;-62
2022/07/07 11:43:01;;;;;;;75.18;42.50;;;32.20;91.80;;;;;;5039455;28;20025;-61
2022/07/07 11:45:29;;;;;;;80.68;46.63;;;32.20;92.10;;;;;;5035788;28;20161;-62
2022/07/07 11:47:57;;;;;;;67.75;38.83;;;32.20;92.30;;;;;;5036008;28;20532;-63
2022/07/07 11:50:24;;;;;;;67.95;41.22;;;32.20;92.30;;;;;;5054266;28;20049;-63
2022/07/07 11:52:55;;;;;;;81.97;42.60;;;32.20;92.60;;;;;;5055660;28;20017;-61
2022/07/07 11:55:23;;;;;;;103.00;56.88;;;32.20;92.80;;;;;;5055780;28;20024;-61
2022/07/07 11:57:50;;;;;;;105.10;57.72;;;32.20;92.70;;;;;;5054930;28;20111;-64
2022/07/07 12:00:21;;;;;;;138.52;73.68;;;32.20;92.70;;;;;;5055319;28;20029;-62
2022/07/07 12:02:51;;;;;;;158.75;83.07;;;32.10;92.60;;;;;;5051788;28;20048;-61
2022/07/07 12:05:22;;;;;;;97.30;53.25;;;32.10;93.00;;;;;;5046032;28;20473;-62
2022/07/07 12:07:53;;;;;;;93.97;52.10;;;32.10;92.80;;;;;;5044984;28;20027;-61
2022/07/07 12:10:24;;;;;;;126.28;66.70;;;32.10;92.80;;;;;;5054794;28;20036;-61
2022/07/07 12:12:56;;;;;;;156.05;80.85;;;32.10;92.90;;;;;;5050624;28;20444;-61
2022/07/07 12:15:27;;;;;;;130.20;75.50;;;32.00;93.10;;;;;;5035346;28;20021;-61
2022/07/07 12:17:54;;;;;;;142.82;81.40;;;32.00;93.10;;;;;;5035262;28;20038;-61
2022/07/07 12:20:21;;;;;;;206.52;116.20;;;32.00;93.40;;;;;;5035378;28;20458;-62
2022/07/07 12:22:51;;;;;;;146.88;81.22;;;32.00;93.30;;;;;;5054678;28;20029;-62
2022/07/07 12:25:17;;;;;;;124.57;68.20;;;32.00;93.00;;;;;;5055278;28;20068;-62
2022/07/07 12:27:49;;;;;;;103.80;62.58;;;31.90;93.30;;;;;;5054673;28;20487;-61
2022/07/07 12:30:16;;;;;;;181.85;98.45;;;31.80;93.50;;;;;;5054861;28;20064;-61
2022/07/07 12:32:45;;;;;;;146.68;82.65;;;31.80;93.40;;;;;;5055126;28;20058;-61
2022/07/07 12:35:16;;;;;;;135.45;78.57;;;31.80;93.60;;;;;;5054847;28;20075;-61
2022/07/07 12:37:46;;;;;;;115.75;66.80;;;31.80;93.60;;;;;;5054717;28;20374;-60
2022/07/07 12:40:14;;;;;;;177.88;100.15;;;31.70;93.50;;;;;;5054763;28;20104;-61
2022/07/07 12:42:45;;;;;;;237.15;137.00;;;31.60;93.50;;;;;;5054729;28;20047;-62
2022/07/07 12:45:14;;;;;;;218.67;125.57;;;31.60;93.80;;;;;;5054619;28;20017;-60
2022/07/07 12:47:47;;;;;;;206.50;127.03;;;31.60;93.70;;;;;;5054779;28;20447;-61
2022/07/07 12:50:14;;;;;;;171.45;103.10;;;31.60;93.90;;;;;;5054711;28;20101;-61
2022/07/07 12:52:41;;;;;;;136.65;81.00;;;31.60;93.80;;;;;;5054591;28;20123;-61
2022/07/07 12:55:11;;;;;;;191.73;105.20;;;31.60;93.80;;;;;;5047261;28;20048;-61
2022/07/07 12:57:39;;;;;;;202.60;114.57;;;31.60;93.80;;;;;;5043685;28;20017;-61
2022/07/07 13:00:07;;;;;;;196.52;110.28;;;31.60;93.90;;;;;;5043201;28;20025;-61
2022/07/07 13:02:34;;;;;;;158.65;89.55;;;31.60;93.90;;;;;;5042873;28;20490;-61
2022/07/07 13:05:01;;;;;;;162.48;94.45;;;31.50;94.00;;;;;;5047654;28;20024;-62
2022/07/07 13:07:28;;;;;;;155.65;83.20;;;31.50;94.20;;;;;;5044219;28;20453;-61
2022/07/07 13:09:55;;;;;;;249.07;123.57;;;31.50;94.10;;;;;;5046111;28;20040;-61
2022/07/07 13:12:22;;;;;;;291.52;134.35;;;31.50;94.20;;;;;;5038887;28;20095;-62
2022/07/07 13:14:48;;;;;;;82.22;43.60;;;31.40;94.20;;;;;;5038885;28;20018;-62
2022/07/07 13:17:16;;;;;;;150.13;79.82;;;31.40;94.20;;;;;;5043046;28;20104;-62
2022/07/07 13:19:43;;;;;;;127.47;66.63;;;31.30;94.90;;;;;;5047606;28;20025;-62
2022/07/07 13:22:09;;;;;;;77.00;45.35;;;31.30;95.40;;;;;;5042357;28;20473;-63
2022/07/07 13:24:36;;;;;;;98.63;52.85;;;31.20;96.10;;;;;;5043502;28;20037;-62
2022/07/07 13:27:03;;;;;;;56.60;33.05;;;31.20;96.70;;;;;;5041668;28;20021;-62
2022/07/07 13:29:30;;;;;;;70.03;40.63;;;31.10;97.30;;;;;;5042569;28;20090;-62
2022/07/07 13:31:56;;;;;;;69.70;37.33;;;31.10;97.90;;;;;;5043483;28;20025;-62
2022/07/07 13:34:23;;;;;;;59.97;33.45;;;31.00;98.20;;;;;;5041532;28;20478;-62
2022/07/07 13:36:50;;;;;;;75.57;40.08;;;31.10;98.60;;;;;;5045749;28;20029;-62
2022/07/07 13:39:17;;;;;;;140.40;73.15;;;31.00;98.70;;;;;;5043535;28;20029;-62
2022/07/07 13:41:43;;;;;;;119.90;60.92;;;30.90;99.10;;;;;;5041621;28;20017;-62
2022/07/07 13:44:10;;;;;;;58.42;32.65;;;30.90;99.20;;;;;;5041666;28;20025;-62
2022/07/07 13:46:36;;;;;;;58.58;32.78;;;30.80;99.50;;;;;;5043277;28;20018;-62
2022/07/07 13:49:03;;;;;;;37.28;23.67;;;30.70;99.80;;;;;;5045568;28;20171;-62
2022/07/07 13:51:30;;;;;;;32.03;18.30;;;30.70;99.90;;;;;;5043015;28;20457;-62
2022/07/07 13:53:56;;;;;;;47.92;26.33;;;30.60;99.90;;;;;;5043009;28;20029;-62
2022/07/07 13:56:23;;;;;;;22.30;14.43;;;30.60;99.90;;;;;;5041029;28;20148;-62
2022/07/07 13:58:49;;;;;;;22.30;15.13;;;30.60;99.90;;;;;;5042203;28;20453;-63
2022/07/07 14:01:16;;;;;;;50.45;35.60;;;30.50;99.90;;;;;;5033299;28;20057;-62
2022/07/07 14:03:42;;;;;;;44.75;28.75;;;30.50;99.90;;;;;;5046538;28;20017;-62
2022/07/07 14:06:10;;;;;;;38.25;22.42;;;30.40;99.90;;;;;;5043426;28;20025;-61
2022/07/07 14:08:36;;;;;;;30.75;16.83;;;30.40;99.90;;;;;;5044962;28;20159;-62
2022/07/07 14:11:05;;;;;;;31.73;18.75;;;30.30;99.90;;;;;;5046734;28;20024;-61
2022/07/07 14:13:33;;;;;;;22.95;12.77;;;30.30;99.90;;;;;;5041322;28;20021;-61
2022/07/07 14:15:59;;;;;;;57.88;37.20;;;30.30;99.90;;;;;;5042335;28;20071;-62
2022/07/07 14:18:26;;;;;;;25.77;14.30;;;30.20;99.90;;;;;;5043329;28;20508;-62
2022/07/07 14:20:52;;;;;;;53.85;32.30;;;30.20;99.90;;;;;;5041485;28;20021;-61
2022/07/07 14:23:19;;;;;;;14.77;8.80;;;30.10;99.90;;;;;;5042293;28;20021;-62
2022/07/07 14:25:45;;;;;;;38.25;26.30;;;30.10;99.90;;;;;;5043211;28;20057;-62
2022/07/07 14:28:12;;;;;;;23.23;14.88;;;30.00;99.90;;;;;;5046014;28;20159;-61
2022/07/07 14:30:38;;;;;;;18.60;8.52;;;30.10;99.90;;;;;;5046479;28;20549;-62
2022/07/07 14:33:06;;;;;;;57.55;41.65;;;30.00;99.90;;;;;;5042668;28;20048;-62
2022/07/07 14:35:33;;;;;;;17.70;10.43;;;30.00;99.90;;;;;;5044754;28;20423;-62
2022/07/07 14:38:00;;;;;;;24.92;8.35;;;29.90;99.90;;;;;;5041267;28;20029;-62
2022/07/07 14:40:28;;;;;;;21.95;13.35;;;29.90;99.90;;;;;;5041449;28;20574;-62
2022/07/07 14:42:55;;;;;;;28.98;20.83;;;29.90;99.90;;;;;;5042286;28;20450;-62
2022/07/07 14:45:21;;;;;;;19.67;15.63;;;29.80;99.90;;;;;;5042202;28;20457;-63
2022/07/07 14:47:48;;;;;;;13.93;9.77;;;29.80;99.90;;;;;;5045392;28;20067;-62
2022/07/07 14:50:14;;;;;;;17.83;8.55;;;29.80;99.90;;;;;;5042566;28;20017;-62
2022/07/07 14:52:41;;;;;;;23.60;13.57;;;29.80;99.90;;;;;;5041961;28;20381;-62
2022/07/07 14:55:08;;;;;;;29.45;16.65;;;29.80;99.90;;;;;;5041476;28;20496;-62
2022/07/07 14:57:34;;;;;;;27.52;17.45;;;29.80;99.90;;;;;;5040810;28;20024;-62
2022/07/07 15:00:01;;;;;;;21.58;12.45;;;29.90;99.90;;;;;;5042470;28;20024;-62
2022/07/07 15:02:27;;;;;;;14.18;8.13;;;29.70;99.90;;;;;;5046773;28;20293;-62
2022/07/07 15:04:56;;;;;;;73.40;55.72;;;29.70;99.90;;;;;;5049021;28;20028;-62
2022/07/07 15:07:22;;;;;;;25.67;17.05;;;29.70;99.90;;;;;;5041877;28;20035;-65
2022/07/07 15:09:49;;;;;;;23.17;16.95;;;29.80;99.90;;;;;;5045962;28;20029;-63
2022/07/07 15:12:15;;;;;;;51.88;34.92;;;29.80;99.90;;;;;;5042360;28;20037;-63
2022/07/07 15:14:42;;;;;;;63.25;42.65;;;29.80;99.90;;;;;;5035427;28;20386;-61
2022/07/07 15:17:09;;;;;;;22.95;15.15;;;29.80;99.90;;;;;;5036050;28;20025;-62
2022/07/07 15:19:36;;;;;;;17.38;9.75;;;29.90;99.90;;;;;;5050557;28;20060;-62
2022/07/07 15:22:02;;;;;;;15.65;7.82;;;29.70;99.90;;;;;;5043813;28;20109;-63
2022/07/07 15:24:29;;;;;;;12.68;8.80;;;29.60;99.90;;;;;;5045442;28;20029;-63
2022/07/07 15:26:55;;;;;;;13.30;7.35;;;29.60;99.90;;;;;;5047413;28;20032;-62
2022/07/07 15:29:22;;;;;;;9.48;6.45;;;29.60;99.90;;;;;;5049112;28;20025;-62
2022/07/07 15:31:48;;;;;;;12.80;7.03;;;29.60;99.90;;;;;;5044772;28;20025;-63
2022/07/07 15:34:15;;;;;;;12.60;7.57;;;29.60;99.90;;;;;;5043650;28;20029;-63
2022/07/07 15:36:42;;;;;;;12.35;6.43;;;29.60;99.90;;;;;;5045187;28;20049;-63
2022/07/07 15:39:08;;;;;;;11.00;6.13;;;29.50;99.90;;;;;;5044028;28;20500;-63
2022/07/07 15:41:35;;;;;;;8.23;6.13;;;29.50;99.90;;;;;;5044236;28;20017;-62
2022/07/07 15:44:01;;;;;;;14.35;6.88;;;29.50;99.90;;;;;;5044887;28;20450;-62
2022/07/07 15:46:28;;;;;;;12.45;6.97;;;29.50;99.90;;;;;;5045094;28;20163;-62
2022/07/07 15:48:54;;;;;;;12.07;7.22;;;29.40;99.90;;;;;;5046036;28;20017;-61
2022/07/07 15:51:21;;;;;;;9.70;5.70;;;29.40;99.90;;;;;;5047506;28;20029;-62
2022/07/07 15:53:49;;;;;;;12.00;6.90;;;29.30;99.90;;;;;;5048367;28;20374;-62
2022/07/07 15:56:17;;;;;;;13.32;6.78;;;29.20;99.90;;;;;;5034652;28;20114;-63
2022/07/07 15:58:45;;;;;;;13.88;6.75;;;29.20;99.90;;;;;;5047034;28;20013;-63
2022/07/07 16:01:12;;;;;;;10.68;6.53;;;29.10;99.90;;;;;;5043375;28;20049;-62
2022/07/07 16:06:10;;;;;;;11.23;6.53;;;29.10;99.90;;;;;;5045779;28;20017;-63
2022/07/07 16:08:37;;;;;;;12.98;6.43;;;29.10;99.90;;;;;;5044356;28;20022;-62
2022/07/07 16:11:03;;;;;;;10.20;5.75;;;29.10;99.90;;;;;;5044407;28;20031;-63
2022/07/07 16:13:30;;;;;;;8.02;5.70;;;29.10;99.90;;;;;;5045633;28;20377;-62
2022/07/07 16:15:56;;;;;;;11.82;6.78;;;29.00;99.90;;;;;;5044248;28;20270;-62
2022/07/07 16:18:23;;;;;;;10.57;5.93;;;29.00;99.90;;;;;;5044301;28;20025;-61
2022/07/07 16:20:49;;;;;;;8.18;5.80;;;29.00;99.90;;;;;;5045570;28;20024;-62
2022/07/07 16:23:16;;;;;;;8.00;5.32;;;29.00;99.90;;;;;;5044141;28;20509;-62
2022/07/07 16:25:42;;;;;;;9.25;5.47;;;29.00;99.90;;;;;;5044299;28;20021;-62
2022/07/07 16:28:09;;;;;;;8.90;6.40;;;29.00;99.90;;;;;;5045408;28;20028;-63
2022/07/07 16:30:35;;;;;;;10.13;5.80;;;28.90;99.90;;;;;;5034302;28;20390;-63
2022/07/07 16:33:02;;;;;;;10.43;6.22;;;28.90;99.90;;;;;;5043919;28;20099;-62
2022/07/07 16:35:29;;;;;;;14.38;6.70;;;28.90;99.90;;;;;;5049533;28;20033;-62
2022/07/07 16:37:55;;;;;;;9.55;5.50;;;28.90;99.90;;;;;;5050381;28;20025;-62
2022/07/07 16:40:22;;;;;;;11.93;5.57;;;28.90;99.90;;;;;;5044685;28;20084;-62
2022/07/07 16:42:48;;;;;;;9.65;6.25;;;28.80;99.90;;;;;;5043425;28;20045;-62
2022/07/07 16:45:15;;;;;;;9.38;5.43;;;28.80;99.90;;;;;;5045067;28;20025;-63
2022/07/07 16:47:41;;;;;;;7.07;5.40;;;28.80;99.90;;;;;;5044196;28;20016;-63
2022/07/07 16:50:08;;;;;;;9.15;5.85;;;28.80;99.90;;;;;;5042891;28;20639;-63
2022/07/07 16:52:35;;;;;;;9.55;6.28;;;28.80;99.90;;;;;;5043171;28;20026;-63
2022/07/07 16:55:02;;;;;;;12.35;6.55;;;28.80;99.90;;;;;;5043853;28;20051;-63
2022/07/07 16:57:29;;;;;;;13.45;6.68;;;28.80;99.90;;;;;;5044948;28;20075;-62
2022/07/07 16:59:55;;;;;;;13.65;5.95;;;28.80;99.90;;;;;;5043111;28;20096;-62
2022/07/07 17:02:22;;;;;;;10.23;6.05;;;28.80;99.90;;;;;;5043281;28;20051;-62
2022/07/07 17:04:48;;;;;;;8.63;6.38;;;28.70;99.90;;;;;;5044696;28;20481;-63
2022/07/07 17:07:15;;;;;;;9.27;6.22;;;28.70;99.90;;;;;;5046611;28;20032;-63
2022/07/07 17:09:42;;;;;;;8.13;5.68;;;28.70;99.90;;;;;;5044887;28;20490;-63
2022/07/07 17:12:09;;;;;;;10.35;6.63;;;28.70;99.90;;;;;;5049996;28;20041;-62
2022/07/07 17:14:36;;;;;;;9.60;6.57;;;28.70;99.90;;;;;;5043454;28;20053;-63
2022/07/07 17:17:02;;;;;;;12.00;6.50;;;28.70;99.90;;;;;;5045449;28;20025;-62
2022/07/07 17:19:29;;;;;;;10.38;7.07;;;28.60;99.90;;;;;;5049484;28;20029;-63
2022/07/07 17:21:56;;;;;;;8.50;6.07;;;28.60;99.90;;;;;;5054309;28;20063;-63
2022/07/07 17:24:22;;;;;;;13.57;6.60;;;28.60;99.90;;;;;;5054376;28;20021;-63
2022/07/07 17:26:49;;;;;;;11.70;7.07;;;28.60;99.90;;;;;;5054248;28;20053;-64
2022/07/07 17:29:17;;;;;;;13.75;7.15;;;28.60;99.90;;;;;;5054032;28;20125;-63
2022/07/07 17:31:44;;;;;;;12.35;6.97;;;28.60;99.90;;;;;;5054170;28;20075;-63
2022/07/07 17:34:11;;;;;;;10.80;5.82;;;28.60;99.90;;;;;;5054073;28;20052;-62
2022/07/07 17:36:38;;;;;;;9.43;5.68;;;28.60;99.90;;;;;;5053741;28;20047;-63
2022/07/07 17:39:05;;;;;;;7.82;4.95;;;28.60;99.90;;;;;;5054101;28;20108;-63
2022/07/07 17:41:32;;;;;;;9.18;5.47;;;28.60;99.90;;;;;;5053220;28;20459;-63
2022/07/07 17:43:58;;;;;;;11.20;5.88;;;28.50;99.90;;;;;;5053685;28;20531;-62
2022/07/07 17:46:25;;;;;;;10.18;5.60;;;28.50;99.90;;;;;;5053085;28;20037;-62
2022/07/07 17:48:51;;;;;;;8.85;4.70;;;28.60;99.90;;;;;;5053135;28;20025;-62
2022/07/07 17:51:18;;;;;;;10.40;4.80;;;28.60;99.90;;;;;;5053508;28;20033;-62
2022/07/07 17:53:45;;;;;;;9.38;4.82;;;28.60;99.90;;;;;;5053775;28;20025;-63
2022/07/07 17:56:11;;;;;;;7.82;4.95;;;28.50;99.90;;;;;;5053937;28;20048;-63
2022/07/07 17:58:39;;;;;;;8.10;4.65;;;28.50;99.90;;;;;;5053583;28;20021;-62
2022/07/07 18:01:06;;;;;;;8.02;4.03;;;28.60;99.90;;;;;;5053182;28;20045;-63
2022/07/07 18:03:32;;;;;;;6.63;3.80;;;28.60;99.90;;;;;;5053809;28;20492;-63
2022/07/07 18:05:59;;;;;;;6.28;3.88;;;28.60;99.90;;;;;;5053742;28;20021;-62
2022/07/07 18:08:25;;;;;;;9.23;4.53;;;28.60;99.90;;;;;;5053875;28;20505;-62
2022/07/07 18:10:52;;;;;;;6.70;4.20;;;28.60;99.90;;;;;;5053370;28;20481;-63
2022/07/07 18:13:19;;;;;;;7.72;5.28;;;28.60;99.90;;;;;;5053189;28;20028;-63
2022/07/07 18:15:45;;;;;;;7.68;3.97;;;28.50;99.90;;;;;;5053499;28;20436;-63
2022/07/07 18:18:12;;;;;;;8.50;4.85;;;28.50;99.90;;;;;;5053262;28;20144;-63
2022/07/07 18:20:39;;;;;;;5.85;4.60;;;28.60;99.90;;;;;;5052807;28;20033;-63
2022/07/07 18:23:05;;;;;;;8.13;5.13;;;28.60;99.90;;;;;;5052948;28;20036;-62
2022/07/07 18:25:32;;;;;;;7.88;4.50;;;28.60;99.90;;;;;;5053381;28;20036;-62
2022/07/07 18:27:59;;;;;;;7.20;4.70;;;28.60;99.90;;;;;;5053234;28;20032;-62
2022/07/07 18:30:25;;;;;;;7.30;5.07;;;28.60;99.90;;;;;;5053197;28;20022;-63
2022/07/07 18:32:52;;;;;;;7.32;4.22;;;28.70;99.90;;;;;;5053438;28;20022;-63
2022/07/07 18:35:19;;;;;;;10.63;5.00;;;28.60;99.90;;;;;;5053121;28;20028;-63
2022/07/07 18:37:46;;;;;;;8.32;5.35;;;28.60;99.90;;;;;;5052751;28;20036;-64
2022/07/07 18:40:13;;;;;;;7.43;5.38;;;28.60;99.90;;;;;;5052891;28;20032;-63
2022/07/07 18:42:40;;;;;;;9.25;4.65;;;28.50;99.90;;;;;;5052968;28;20029;-63
2022/07/07 18:45:07;;;;;;;12.60;5.30;;;28.50;99.90;;;;;;5052934;28;20018;-63
2022/07/07 18:47:35;;;;;;;6.40;4.80;;;28.60;99.90;;;;;;5053306;28;20104;-63
2022/07/07 18:50:02;;;;;;;7.82;5.20;;;28.50;99.90;;;;;;5052890;28;20021;-63
2022/07/07 18:52:28;;;;;;;8.60;5.10;;;28.50;99.90;;;;;;5054021;28;20051;-64
2022/07/07 18:54:55;;;;;;;12.27;6.75;;;28.50;99.90;;;;;;5057239;28;20142;-63
2022/07/07 18:57:21;;;;;;;8.80;5.88;;;28.40;99.90;;;;;;5056975;28;20393;-63
2022/07/07 18:59:48;;;;;;;15.13;8.32;;;28.40;99.90;;;;;;5056867;28;20114;-63
2022/07/07 19:02:17;;;;;;;24.20;14.25;;;28.40;99.90;;;;;;5056726;28;20052;-63
2022/07/07 19:04:44;;;;;;;57.35;42.80;;;28.40;99.90;;;;;;5056828;28;20061;-63
2022/07/07 19:07:10;;;;;;;39.83;22.45;;;28.40;99.90;;;;;;5056910;28;20024;-63
2022/07/07 19:09:37;;;;;;;35.22;19.77;;;28.40;99.90;;;;;;5056853;28;20535;-63
2022/07/07 19:12:04;;;;;;;41.80;20.08;;;28.40;99.90;;;;;;5056364;28;20024;-63
2022/07/07 19:14:30;;;;;;;39.75;20.63;;;28.40;99.90;;;;;;5056837;28;20067;-63
2022/07/07 19:16:59;;;;;;;39.50;20.17;;;28.40;99.90;;;;;;5056627;28;20029;-63
2022/07/07 19:19:25;;;;;;;37.88;20.38;;;28.40;99.90;;;;;;5056548;28;20060;-63